createdAt,value
2023-08-13T00:00:14.403Z,6.47
2023-08-13T00:08:18.510Z,7.33
2023-08-13T00:13:55.388Z,6.20
2023-08-13T00:19:30.400Z,6.33
2023-08-13T00:22:37.595Z,6.55
2023-08-13T00:28:10.471Z,7.25
2023-08-13T00:31:15.735Z,6.80
2023-08-13T00:36:48.939Z,6.25
2023-08-13T00:42:23.977Z,7.72
2023-08-13T00:47:58.830Z,7.95
2023-08-13T00:53:34.392Z,8.63
2023-08-13T00:59:08.932Z,8.65
2023-08-13T01:04:45.662Z,8.00
2023-08-13T01:10:48.946Z,9.03
2023-08-13T01:16:25.162Z,9.08
2023-08-13T01:22:02.133Z,9.48
2023-08-13T01:30:24.353Z,9.43
2023-08-13T01:41:08.186Z,9.83
2023-08-13T01:44:17.000Z,9.55
2023-08-13T01:49:52.500Z,9.95
2023-08-13T01:55:29.169Z,10.15
2023-08-13T02:01:05.273Z,10.25
2023-08-13T02:06:43.485Z,10.95
2023-08-13T02:12:21.535Z,10.75
2023-08-13T02:20:28.204Z,11.33
2023-08-13T02:26:04.488Z,11.53
2023-08-13T02:31:39.140Z,10.93
2023-08-13T02:34:48.381Z,11.40
2023-08-13T02:40:24.531Z,10.70
2023-08-13T02:48:28.876Z,11.25
2023-08-13T02:51:34.680Z,10.90
2023-08-13T02:57:10.856Z,11.48
2023-08-13T03:02:46.746Z,10.88
2023-08-13T03:08:22.589Z,11.12
2023-08-13T03:11:29.157Z,11.50
2023-08-13T03:19:32.084Z,11.25
2023-08-13T03:25:07.436Z,12.03
2023-08-13T03:33:15.477Z,12.88
2023-08-13T03:38:49.739Z,12.93
2023-08-13T03:41:54.178Z,12.03
2023-08-13T03:47:30.453Z,13.10
2023-08-13T03:53:07.836Z,13.28
2023-08-13T04:01:21.707Z,12.95
2023-08-13T04:04:28.997Z,12.70
2023-08-13T04:07:05.030Z,12.40
2023-08-13T04:09:48.476Z,13.00
2023-08-13T04:15:26.345Z,13.48
2023-08-13T04:18:33.075Z,12.93
2023-08-13T04:21:42.812Z,12.25
2023-08-13T04:24:48.902Z,12.50
2023-08-13T04:27:55.854Z,13.05
2023-08-13T04:31:03.265Z,13.22
2023-08-13T04:34:09.833Z,13.10
2023-08-13T04:37:15.798Z,13.30
2023-08-13T04:40:24.238Z,14.03
2023-08-13T04:48:32.971Z,14.93
2023-08-13T04:54:06.385Z,15.25
2023-08-13T04:59:42.043Z,14.63
2023-08-13T05:05:18.399Z,14.83
2023-08-13T05:10:54.222Z,14.70
2023-08-13T05:16:28.542Z,15.20
2023-08-13T05:22:05.424Z,13.05
2023-08-13T05:25:10.766Z,12.18
2023-08-13T05:30:45.914Z,11.80
2023-08-13T05:33:51.203Z,13.00
2023-08-13T05:39:26.661Z,10.43
2023-08-13T05:45:01.813Z,10.48
2023-08-13T05:50:39.423Z,9.78
2023-08-13T05:56:15.326Z,9.98
2023-08-13T05:59:21.048Z,9.78
2023-08-13T06:04:55.028Z,9.03
2023-08-13T06:10:30.025Z,9.55
2023-08-13T06:16:06.609Z,9.08
2023-08-13T06:21:41.586Z,8.38
2023-08-13T06:27:17.234Z,7.78
2023-08-13T06:35:23.615Z,7.80
2023-08-13T06:40:58.900Z,7.97
2023-08-13T06:46:33.797Z,7.22
2023-08-13T06:54:37.602Z,6.55
2023-08-13T06:57:43.995Z,7.45
2023-08-13T07:05:49.573Z,5.42
2023-08-13T07:08:54.872Z,5.83
2023-08-13T07:12:02.474Z,5.55
2023-08-13T07:17:37.981Z,5.20
2023-08-13T07:23:14.415Z,4.22
2023-08-13T07:28:52.766Z,3.80
2023-08-13T07:36:55.739Z,3.67
2023-08-13T07:40:02.799Z,3.90
2023-08-13T07:45:37.712Z,3.60
2023-08-13T07:51:12.673Z,3.20
2023-08-13T07:54:19.847Z,3.15
2023-08-13T07:59:56.232Z,3.00
2023-08-13T08:02:56.570Z,3.25
2023-08-13T08:08:31.613Z,2.70
2023-08-13T08:16:36.700Z,2.47
2023-08-13T08:19:43.729Z,2.30
2023-08-13T08:25:24.687Z,2.10
2023-08-13T08:28:31.655Z,2.50
2023-08-13T08:31:38.160Z,2.95
2023-08-13T08:34:44.072Z,2.30
2023-08-13T08:40:20.297Z,2.52
2023-08-13T08:43:26.992Z,2.70
2023-08-13T08:46:31.997Z,2.40
2023-08-13T08:52:08.414Z,2.50
2023-08-13T08:57:45.110Z,2.33
2023-08-13T09:03:20.115Z,2.70
2023-08-13T09:08:55.876Z,2.87
2023-08-13T09:14:31.028Z,2.85
2023-08-13T09:20:08.132Z,2.95
2023-08-13T09:28:13.038Z,2.50
2023-08-13T09:33:48.703Z,2.83
2023-08-13T09:39:24.029Z,2.47
2023-08-13T09:47:28.035Z,2.58
2023-08-13T09:50:34.598Z,2.75
2023-08-13T09:56:11.412Z,2.50
2023-08-13T09:59:17.637Z,2.90
2023-08-13T10:02:23.178Z,2.70
2023-08-13T10:05:29.814Z,2.80
2023-08-13T10:08:35.962Z,3.12
2023-08-13T10:11:41.277Z,2.80
2023-08-13T10:14:47.233Z,2.42
2023-08-13T10:17:55.907Z,2.15
2023-08-13T10:26:01.011Z,2.20
2023-08-13T10:31:42.726Z,2.75
2023-08-13T10:35:02.144Z,2.40
2023-08-13T10:38:13.038Z,2.42
2023-08-13T10:43:49.455Z,2.25
2023-08-13T10:51:54.354Z,2.37
2023-08-13T10:54:59.634Z,2.33
2023-08-13T11:00:39.894Z,2.00
2023-08-13T11:03:48.180Z,2.08
2023-08-13T11:06:54.221Z,1.82
2023-08-13T11:10:00.197Z,1.92
2023-08-13T11:15:36.658Z,2.25
2023-08-13T11:18:41.845Z,1.87
2023-08-13T11:21:47.564Z,1.85
2023-08-13T11:27:23.812Z,1.70
2023-08-13T11:33:01.127Z,1.92
2023-08-13T11:38:37.896Z,2.00
2023-08-13T11:46:43.132Z,1.92
2023-08-13T11:49:58.480Z,1.70
2023-08-13T11:53:28.196Z,1.70
2023-08-13T11:56:35.002Z,1.70
2023-08-13T11:59:24.818Z,2.08
2023-08-13T12:02:30.114Z,1.90
2023-08-13T12:05:42.281Z,1.50
2023-08-13T12:08:48.152Z,1.70
2023-08-13T12:11:54.124Z,1.72
2023-08-13T12:15:00.126Z,1.70
2023-08-13T12:18:07.098Z,2.05
2023-08-13T12:23:42.904Z,1.70
2023-08-13T12:26:50.627Z,2.00
2023-08-13T12:29:56.800Z,1.95
2023-08-13T12:35:31.542Z,1.60
2023-08-13T12:38:29.166Z,1.82
2023-08-13T12:41:39.821Z,1.95
2023-08-13T12:49:42.085Z,2.08
2023-08-13T12:55:16.396Z,1.80
2023-08-13T13:00:52.882Z,1.75
2023-08-13T13:03:59.368Z,1.70
2023-08-13T13:06:56.837Z,2.00
2023-08-13T13:10:03.500Z,2.30
2023-08-13T13:15:39.279Z,1.82
2023-08-13T13:23:44.243Z,1.90
2023-08-13T13:26:49.596Z,2.10
2023-08-13T13:32:22.886Z,1.82
2023-08-13T13:35:28.032Z,2.20
2023-08-13T13:38:35.323Z,2.02
2023-08-13T13:46:40.041Z,1.80
2023-08-13T13:52:18.388Z,2.33
2023-08-13T13:57:54.297Z,1.77
2023-08-13T14:01:02.315Z,1.80
2023-08-13T14:06:36.978Z,2.33
2023-08-13T14:14:44.070Z,2.47
2023-08-13T14:20:20.415Z,2.40
2023-08-13T14:25:55.982Z,10.40
2023-08-13T14:29:03.011Z,6.42
2023-08-13T14:34:37.124Z,2.52
2023-08-13T14:37:42.678Z,2.12
2023-08-13T14:43:19.341Z,2.35
2023-08-13T14:48:53.619Z,2.10
2023-08-13T14:51:59.257Z,2.90
2023-08-13T14:57:34.453Z,3.50
2023-08-13T15:03:10.998Z,2.60
2023-08-13T15:08:47.302Z,3.00
2023-08-13T15:14:24.461Z,3.20
2023-08-13T15:17:30.031Z,2.85
2023-08-13T15:23:04.977Z,2.27
2023-08-13T15:26:11.254Z,2.30
2023-08-13T15:34:16.937Z,2.00
2023-08-13T15:39:50.838Z,2.15
2023-08-13T15:45:25.965Z,1.90
2023-08-13T15:51:01.315Z,2.35
2023-08-13T15:56:37.045Z,2.85
2023-08-13T16:02:12.221Z,2.60
2023-08-13T16:07:47.535Z,2.70
2023-08-13T16:10:53.951Z,2.87
2023-08-13T16:16:29.889Z,4.80
2023-08-13T16:22:05.704Z,17.60
2023-08-13T16:27:40.693Z,30.55
2023-08-13T16:30:46.458Z,32.03
2023-08-13T16:36:18.397Z,22.85
2023-08-13T16:41:53.792Z,19.10
2023-08-13T16:45:00.567Z,23.70
2023-08-13T16:50:35.910Z,20.95
2023-08-13T16:56:11.977Z,22.82
2023-08-13T17:01:48.698Z,26.50
2023-08-13T17:07:22.997Z,26.55
2023-08-13T17:10:29.593Z,22.35
2023-08-13T17:16:08.709Z,17.57
2023-08-13T17:21:45.687Z,12.65
2023-08-13T17:29:50.687Z,9.88
2023-08-13T17:35:27.298Z,8.85
2023-08-13T17:41:03.857Z,8.60
2023-08-13T17:46:40.689Z,8.40
2023-08-13T17:52:15.767Z,7.45
2023-08-13T17:57:52.223Z,7.25
2023-08-13T18:00:57.433Z,7.37
2023-08-13T18:09:05.965Z,8.18
2023-08-13T18:17:07.964Z,8.73
2023-08-13T18:22:41.795Z,9.33
2023-08-13T18:25:48.883Z,10.65
2023-08-13T18:33:54.254Z,13.90
2023-08-13T18:37:00.138Z,14.23
2023-08-13T18:42:34.887Z,19.05
2023-08-13T18:48:12.348Z,15.50
2023-08-13T18:53:47.314Z,14.90
2023-08-13T19:01:56.097Z,13.50
2023-08-13T19:10:04.036Z,14.25
2023-08-13T19:18:10.252Z,13.78
2023-08-13T19:21:16.135Z,13.72
2023-08-13T19:26:50.938Z,14.47
2023-08-13T19:32:27.026Z,13.62
2023-08-13T19:38:01.872Z,13.50
2023-08-13T19:41:12.028Z,12.50
2023-08-13T19:47:09.905Z,18.57
2023-08-13T19:50:16.705Z,21.55
2023-08-13T19:58:21.870Z,13.93
2023-08-13T20:03:59.067Z,12.50
2023-08-13T20:07:05.082Z,12.10
2023-08-13T20:12:39.146Z,12.98
2023-08-13T20:18:14.892Z,17.25
2023-08-13T20:21:21.587Z,17.98
2023-08-13T20:27:05.078Z,17.05
2023-08-13T20:30:11.518Z,16.65
2023-08-13T20:33:19.191Z,14.93
2023-08-13T20:36:25.125Z,13.93
2023-08-13T20:39:30.528Z,15.35
2023-08-13T20:45:04.870Z,13.28
2023-08-13T20:53:10.837Z,12.30
2023-08-13T20:58:45.865Z,15.68
2023-08-13T21:04:20.947Z,15.80
2023-08-13T21:09:55.872Z,13.30
2023-08-13T21:13:00.932Z,13.80
2023-08-13T21:18:35.710Z,19.90
2023-08-13T21:24:11.267Z,17.77
2023-08-13T21:29:45.407Z,17.52
2023-08-13T21:35:22.307Z,8.58
2023-08-13T21:40:58.592Z,9.48
2023-08-13T21:46:33.808Z,8.65
2023-08-13T21:54:39.120Z,8.95
2023-08-13T21:57:44.341Z,8.45
2023-08-13T22:03:18.862Z,8.50
2023-08-13T22:08:54.671Z,8.93
2023-08-13T22:14:30.351Z,8.23
2023-08-13T22:20:09.561Z,13.58
2023-08-13T22:23:11.445Z,18.92
2023-08-13T22:26:19.093Z,21.48
2023-08-13T22:29:09.239Z,21.00
2023-08-13T22:34:44.659Z,18.98
2023-08-13T22:37:49.954Z,17.52
2023-08-13T22:43:22.127Z,14.23
2023-08-13T22:46:28.459Z,13.25
2023-08-13T22:54:34.079Z,9.53
2023-08-13T23:00:09.448Z,8.33
2023-08-13T23:05:46.014Z,7.65
2023-08-13T23:11:21.271Z,7.12
2023-08-13T23:16:57.963Z,6.67
2023-08-13T23:22:33.130Z,6.62
2023-08-13T23:28:08.242Z,7.87
2023-08-13T23:33:44.050Z,8.08
2023-08-13T23:41:50.334Z,7.90
2023-08-13T23:47:26.051Z,7.72
2023-08-13T23:53:00.732Z,7.92
2023-08-13T23:58:35.617Z,8.58
